Time;durP1;ratioP1;P1;durP2;ratioP2;P2;SDS_P1;SDS_P2;PMS_P1;PMS_P2;Temp;Humidity;BMP_temperature;BMP_pressure;BME280_temperature;BME280_humidity;BME280_pressure;Samples;Min_cycle;Max_cycle;Signal;HPM_P1;HPM_P2
2023/04/08 15:37:12;;;;;;;4.45;2.33;;;17.40;60.50;;;;;;4909514;28;45313;-82
2023/04/08 15:39:40;;;;;;;9.43;3.20;;;17.40;60.50;;;;;;4890499;29;45413;-70
2023/04/08 15:42:07;;;;;;;13.60;3.33;;;17.50;61.90;;;;;;4871752;29;48620;-72
2023/04/08 15:44:34;;;;;;;54.45;4.68;;;17.60;61.40;;;;;;4900844;29;45316;-71
2023/04/08 15:47:01;;;;;;;31.50;3.78;;;17.70;61.80;;;;;;4890718;29;45353;-73
2023/04/08 15:49:28;;;;;;;9.65;2.95;;;17.70;61.40;;;;;;4890826;29;45592;-81
2023/04/08 15:51:55;;;;;;;6.38;2.63;;;17.70;61.10;;;;;;4891260;29;47439;-80
2023/04/08 15:54:23;;;;;;;7.43;2.65;;;17.60;61.00;;;;;;4890883;29;46507;-80
2023/04/08 15:56:50;;;;;;;8.77;2.80;;;17.60;61.10;;;;;;4891256;29;45225;-80
2023/04/08 15:59:17;;;;;;;9.82;2.45;;;17.50;61.10;;;;;;4891035;29;45224;-80
2023/04/08 16:01:44;;;;;;;6.93;2.53;;;17.50;61.20;;;;;;4891000;29;45417;-81
2023/04/08 16:04:11;;;;;;;6.25;2.75;;;17.50;61.20;;;;;;4889740;29;45149;-80
2023/04/08 16:17:30;;;;;;;5.38;2.80;;;17.50;61.00;;;;;;4892539;29;45140;-81
2023/04/08 16:19:57;;;;;;;4.50;2.90;;;17.50;60.90;;;;;;4890696;29;45287;-81
2023/04/08 16:22:27;;;;;;;6.47;2.88;;;17.50;61.10;;;;;;4890822;29;45117;-81
2023/04/08 16:24:54;;;;;;;7.07;2.80;;;17.50;61.20;;;;;;4890597;29;45743;-81
2023/04/08 16:27:22;;;;;;;4.75;2.72;;;17.40;61.00;;;;;;4890316;29;45155;-81
2023/04/08 16:29:50;;;;;;;2.88;2.47;;;17.50;61.00;;;;;;4890654;29;45145;-81
2023/04/08 16:32:18;;;;;;;3.67;2.65;;;17.50;61.10;;;;;;4890787;29;45436;-80
2023/04/08 16:34:49;;;;;;;4.25;2.92;;;17.40;61.00;;;;;;4890733;29;47073;-81
2023/04/08 16:37:18;;;;;;;3.78;2.80;;;17.40;61.10;;;;;;4890145;29;45248;-81
2023/04/08 16:39:47;;;;;;;5.53;3.05;;;17.40;61.10;;;;;;4890039;29;45220;-81
2023/04/08 16:42:17;;;;;;;3.90;2.40;;;17.40;61.10;;;;;;4890684;29;45276;-81
2023/04/08 16:44:46;;;;;;;5.97;2.67;;;17.40;61.20;;;;;;4889987;29;45629;-81
2023/04/08 16:47:16;;;;;;;3.60;2.60;;;17.40;61.00;;;;;;4890112;29;45284;-81
2023/04/08 16:49:45;;;;;;;3.80;2.47;;;17.40;61.00;;;;;;4890316;29;45383;-81
2023/04/08 16:52:17;;;;;;;6.18;2.67;;;17.40;60.90;;;;;;4890645;29;45137;-81
2023/04/08 16:54:47;;;;;;;5.93;2.42;;;17.40;60.90;;;;;;4890233;29;45721;-81
2023/04/08 16:57:17;;;;;;;2.90;2.58;;;17.40;61.00;;;;;;4890019;29;45155;-80
2023/04/08 16:59:46;;;;;;;5.07;2.92;;;17.50;61.00;;;;;;4890040;29;45224;-81
2023/04/08 17:02:15;;;;;;;4.40;2.50;;;17.50;61.20;;;;;;4890479;29;45616;-81
2023/04/08 17:04:43;;;;;;;2.63;2.30;;;17.50;61.20;;;;;;4889869;29;46805;-81
2023/04/08 17:07:10;;;;;;;4.35;2.40;;;17.60;61.40;;;;;;4889738;29;45411;-81
2023/04/08 17:09:42;;;;;;;3.25;2.50;;;17.50;61.40;;;;;;4890401;29;45288;-79
2023/04/08 17:12:09;;;;;;;3.90;2.47;;;17.50;61.40;;;;;;4893666;29;45164;-80
2023/04/08 17:14:39;;;;;;;3.13;2.50;;;17.50;61.50;;;;;;4890032;29;45532;-80
2023/04/08 17:17:06;;;;;;;2.90;2.30;;;17.50;61.60;;;;;;4892725;29;45287;-80
2023/04/08 17:19:37;;;;;;;3.83;2.78;;;17.50;61.70;;;;;;4893239;29;45374;-80
2023/04/08 17:22:06;;;;;;;3.88;2.60;;;17.40;61.70;;;;;;4893602;29;45476;-79
2023/04/08 17:24:35;;;;;;;3.20;2.45;;;17.40;61.70;;;;;;4893011;29;46747;-80
2023/04/08 17:27:07;;;;;;;3.15;2.40;;;17.40;61.90;;;;;;4892924;29;45136;-82
2023/04/08 17:29:36;;;;;;;3.33;2.50;;;17.40;61.80;;;;;;4892971;29;45339;-80
2023/04/08 17:32:05;;;;;;;3.55;2.33;;;17.40;61.80;;;;;;4893128;29;45563;-81
2023/04/08 17:34:34;;;;;;;3.63;2.55;;;17.40;61.80;;;;;;4893171;29;45597;-80
2023/04/08 17:37:01;;;;;;;3.47;2.58;;;17.40;61.80;;;;;;4892837;29;45326;-81
2023/04/08 17:39:30;;;;;;;3.28;2.30;;;17.50;62.00;;;;;;4892702;29;45253;-71
2023/04/08 17:41:57;;;;;;;4.53;2.17;;;17.40;61.90;;;;;;4893427;29;45148;-80
2023/04/08 17:44:28;;;;;;;3.38;2.55;;;17.40;61.90;;;;;;4893026;29;47718;-82
2023/04/08 17:46:55;;;;;;;3.10;2.38;;;17.40;62.00;;;;;;4893236;29;45129;-82
2023/04/08 17:49:22;;;;;;;4.20;2.42;;;17.40;62.00;;;;;;4892991;29;45225;-79
2023/04/08 17:51:49;;;;;;;2.40;2.15;;;17.40;61.90;;;;;;4892760;29;45268;-80
2023/04/08 17:54:16;;;;;;;2.28;1.83;;;17.40;61.70;;;;;;4892918;29;46779;-79
2023/04/08 17:56:43;;;;;;;3.47;2.65;;;17.40;61.80;;;;;;4892946;29;45788;-79
2023/04/08 17:59:10;;;;;;;2.70;2.25;;;17.40;61.70;;;;;;4892854;29;45260;-69
2023/04/08 18:01:38;;;;;;;6.03;2.20;;;17.40;61.70;;;;;;4898528;29;45395;-66
2023/04/08 18:04:07;;;;;;;4.57;2.60;;;17.50;64.80;;;;;;4898259;29;47076;-69
2023/04/08 18:06:33;;;;;;;5.25;2.40;;;17.50;69.00;;;;;;4884665;29;45844;-71
2023/04/08 18:09:02;;;;;;;8.20;2.90;;;17.50;70.20;;;;;;4898201;29;45254;-73
2023/04/08 18:11:29;;;;;;;14.55;2.92;;;17.40;68.30;;;;;;4891207;29;45409;-73
2023/04/08 18:13:56;;;;;;;4.15;2.60;;;17.40;67.40;;;;;;4897085;29;47571;-73
2023/04/08 18:16:23;;;;;;;5.78;3.00;;;17.30;67.10;;;;;;4901561;29;45686;-73
2023/04/08 18:18:51;;;;;;;3.70;2.70;;;17.30;68.20;;;;;;4909940;29;45222;-73
2023/04/08 18:21:17;;;;;;;5.90;2.83;;;17.30;68.90;;;;;;4897370;29;45298;-72
2023/04/08 18:23:45;;;;;;;5.80;2.83;;;17.30;69.50;;;;;;4890545;29;45570;-73
2023/04/08 18:26:12;;;;;;;3.97;2.90;;;17.20;69.80;;;;;;4894658;29;45192;-72
2023/04/08 18:28:39;;;;;;;5.90;3.40;;;17.20;69.80;;;;;;4908932;29;45351;-73
2023/04/08 18:31:06;;;;;;;4.30;3.10;;;17.20;70.40;;;;;;4885109;29;45298;-73
2023/04/08 18:33:33;;;;;;;3.78;3.20;;;17.20;70.60;;;;;;4894243;29;47942;-73
2023/04/08 18:36:07;;;;;;;3.55;3.25;;;17.20;71.10;;;;;;4890405;29;45442;-73
2023/04/08 18:38:35;;;;;;;5.53;3.40;;;17.20;70.80;;;;;;4890258;29;45290;-73
2023/04/08 18:41:01;;;;;;;4.32;3.10;;;17.20;71.10;;;;;;4901370;29;45296;-73
2023/04/08 18:43:28;;;;;;;4.28;3.08;;;17.20;71.40;;;;;;4895073;29;47606;-73
2023/04/08 18:45:55;;;;;;;3.92;3.25;;;17.20;71.70;;;;;;4894697;29;45294;-73
2023/04/08 18:48:22;;;;;;;4.10;3.47;;;17.20;71.90;;;;;;4890533;29;45343;-73
2023/04/08 18:50:49;;;;;;;4.18;3.30;;;17.20;72.10;;;;;;4890238;29;45434;-73
2023/04/08 18:53:17;;;;;;;4.10;3.33;;;17.20;72.20;;;;;;4887310;29;47443;-73
2023/04/08 18:55:44;;;;;;;4.60;3.58;;;17.20;73.50;;;;;;4876181;29;45342;-73
2023/04/08 18:58:11;;;;;;;3.83;3.25;;;17.20;72.60;;;;;;4897422;29;45300;-73
2023/04/08 19:00:40;;;;;;;3.75;3.25;;;17.20;73.00;;;;;;4890460;29;45271;-73
2023/04/08 19:03:07;;;;;;;4.10;3.63;;;17.20;73.10;;;;;;4890130;29;47884;-73
2023/04/08 19:05:35;;;;;;;4.85;4.00;;;17.20;73.20;;;;;;4905003;29;45386;-73
2023/04/08 19:08:02;;;;;;;4.80;3.20;;;17.20;73.40;;;;;;4890733;29;45352;-73
2023/04/08 19:10:31;;;;;;;5.93;3.72;;;17.20;73.50;;;;;;4890361;29;45296;-72
2023/04/08 19:12:58;;;;;;;4.30;3.88;;;17.20;73.40;;;;;;4892294;29;46277;-72
2023/04/08 19:15:25;;;;;;;4.88;4.03;;;17.20;73.50;;;;;;4908721;29;45975;-73
2023/04/08 19:17:53;;;;;;;5.13;4.10;;;17.20;73.60;;;;;;4891782;29;45461;-73
2023/04/08 19:20:19;;;;;;;4.78;3.72;;;17.20;73.90;;;;;;4890325;29;45439;-72
2023/04/08 19:22:48;;;;;;;5.65;3.97;;;17.20;74.20;;;;;;4890016;29;46298;-73
2023/04/08 19:25:15;;;;;;;5.93;4.05;;;17.20;74.30;;;;;;4890097;29;45426;-73
2023/04/08 19:27:44;;;;;;;4.38;3.70;;;17.20;74.50;;;;;;4889707;29;45561;-72
2023/04/08 19:30:11;;;;;;;4.28;3.47;;;17.20;75.00;;;;;;4890133;29;45612;-72
2023/04/08 19:32:39;;;;;;;5.28;3.70;;;17.20;74.90;;;;;;4905254;29;46617;-73
2023/04/08 19:35:06;;;;;;;4.82;3.53;;;17.20;75.00;;;;;;4889209;29;45509;-72
2023/04/08 19:37:33;;;;;;;4.22;3.10;;;17.20;75.90;;;;;;4890704;29;45243;-73
2023/04/08 19:40:00;;;;;;;4.10;3.45;;;17.20;75.40;;;;;;4889648;29;45246;-73
2023/04/08 19:42:27;;;;;;;5.25;4.07;;;17.20;75.40;;;;;;4895687;29;47853;-73
2023/04/08 19:44:55;;;;;;;5.93;3.55;;;17.20;75.80;;;;;;4891814;29;45462;-72
2023/04/08 19:47:22;;;;;;;5.05;3.30;;;17.20;75.80;;;;;;4890001;29;45233;-71
2023/04/08 19:49:49;;;;;;;4.53;3.63;;;17.20;75.80;;;;;;4889689;29;45440;-72
2023/04/08 19:52:15;;;;;;;4.03;3.30;;;17.20;75.80;;;;;;4890117;29;48324;-73
2023/04/08 19:54:42;;;;;;;3.70;3.22;;;17.20;76.80;;;;;;4890849;29;45251;-73
2023/04/08 19:57:10;;;;;;;6.25;3.67;;;17.20;75.70;;;;;;4890800;29;45172;-73
2023/04/08 19:59:37;;;;;;;4.35;3.30;;;17.20;76.80;;;;;;4891234;29;45291;-73
2023/04/08 20:02:05;;;;;;;5.35;3.80;;;17.20;75.80;;;;;;4901307;29;46378;-73
2023/04/08 20:04:32;;;;;;;4.97;3.72;;;17.20;75.80;;;;;;4909820;29;45255;-74
2023/04/08 20:07:01;;;;;;;5.15;3.50;;;17.20;75.80;;;;;;4891714;29;45313;-74
2023/04/08 20:09:28;;;;;;;4.55;3.58;;;17.20;75.80;;;;;;4890989;29;45435;-74
2023/04/08 20:11:55;;;;;;;5.28;4.13;;;17.20;75.80;;;;;;4890554;29;45313;-74
2023/04/08 20:14:21;;;;;;;4.57;3.72;;;17.20;75.80;;;;;;4890469;29;45988;-74
2023/04/08 20:16:48;;;;;;;4.20;3.58;;;17.20;75.80;;;;;;4890881;29;45359;-74
2023/04/08 20:19:16;;;;;;;6.85;4.22;;;17.20;75.80;;;;;;4890540;29;45298;-74
2023/04/08 20:21:43;;;;;;;5.72;4.05;;;17.20;75.80;;;;;;4890444;29;45519;-74
2023/04/08 20:24:10;;;;;;;6.57;3.80;;;17.20;75.80;;;;;;4890032;29;45361;-74
2023/04/08 20:26:37;;;;;;;5.18;3.88;;;17.20;75.80;;;;;;4890303;29;45232;-74
2023/04/08 20:29:04;;;;;;;5.30;4.15;;;17.20;76.60;;;;;;4890283;29;45445;-73
2023/04/08 20:31:31;;;;;;;4.32;3.50;;;17.10;77.10;;;;;;4890079;29;47622;-73
2023/04/08 20:33:59;;;;;;;5.90;4.20;;;17.10;77.30;;;;;;4908163;29;45236;-74
2023/04/08 20:36:28;;;;;;;4.38;3.70;;;17.10;77.60;;;;;;4909036;29;45318;-73
2023/04/08 20:38:55;;;;;;;5.03;3.75;;;17.10;77.60;;;;;;4898681;29;45637;-74
2023/04/08 20:41:25;;;;;;;4.63;3.90;;;17.10;77.70;;;;;;4890382;29;45466;-73
2023/04/08 20:43:53;;;;;;;5.53;4.15;;;17.10;77.80;;;;;;4889813;29;45602;-73
2023/04/08 20:46:21;;;;;;;4.70;3.88;;;17.10;77.80;;;;;;4894876;29;45352;-74
2023/04/08 20:48:48;;;;;;;6.07;4.22;;;17.10;77.90;;;;;;4893359;29;45286;-73
2023/04/08 20:51:16;;;;;;;5.78;4.18;;;17.10;77.90;;;;;;4895694;29;47443;-73
2023/04/08 20:53:44;;;;;;;6.07;4.05;;;17.10;77.90;;;;;;4889671;29;45268;-73
2023/04/08 20:56:11;;;;;;;5.30;3.95;;;17.10;77.80;;;;;;4889757;29;45269;-73
2023/04/08 20:58:38;;;;;;;5.72;4.30;;;17.10;77.80;;;;;;4897169;29;45507;-73
2023/04/08 21:01:05;;;;;;;5.65;4.30;;;17.10;77.80;;;;;;4886362;29;47942;-73
2023/04/08 21:03:32;;;;;;;5.50;4.00;;;17.10;77.80;;;;;;4884128;29;45354;-73
2023/04/08 21:05:59;;;;;;;4.95;4.00;;;17.10;77.90;;;;;;4898305;29;45394;-73
2023/04/08 21:08:26;;;;;;;5.55;3.78;;;17.10;77.70;;;;;;4889645;29;45529;-73
2023/04/08 21:10:54;;;;;;;6.85;4.57;;;17.10;77.80;;;;;;4888757;29;47227;-73
2023/04/08 21:13:21;;;;;;;5.55;4.00;;;17.10;78.00;;;;;;4889326;29;45465;-73
2023/04/08 21:15:47;;;;;;;5.75;4.10;;;17.10;78.10;;;;;;4889566;29;45277;-73
2023/04/08 21:18:14;;;;;;;5.60;4.13;;;17.10;78.30;;;;;;4889583;29;45310;-73
2023/04/08 21:20:41;;;;;;;5.20;4.15;;;17.10;78.30;;;;;;4900219;29;45570;-73
2023/04/08 21:23:08;;;;;;;6.03;4.22;;;17.10;78.50;;;;;;4892493;29;45231;-73
2023/04/08 21:25:35;;;;;;;6.75;4.70;;;17.10;78.90;;;;;;4907962;29;45373;-73
2023/04/08 21:28:03;;;;;;;7.25;4.70;;;17.10;78.90;;;;;;4908192;29;45394;-73
2023/04/08 21:30:30;;;;;;;5.93;4.47;;;17.10;79.20;;;;;;4907845;29;47897;-73
2023/04/08 21:32:56;;;;;;;6.00;4.72;;;17.10;79.10;;;;;;4905091;29;45263;-72
2023/04/08 21:35:23;;;;;;;7.47;4.78;;;17.10;78.90;;;;;;4887777;29;45263;-73
2023/04/08 21:37:50;;;;;;;6.32;4.78;;;17.10;79.00;;;;;;4894829;29;45373;-73
2023/04/08 21:40:17;;;;;;;7.40;4.90;;;17.10;78.90;;;;;;4891530;29;46619;-73
2023/04/08 21:42:44;;;;;;;6.82;4.72;;;17.10;78.90;;;;;;4888130;29;45362;-73
2023/04/08 21:45:14;;;;;;;6.55;4.53;;;17.10;78.70;;;;;;4894979;29;45408;-73
2023/04/08 21:47:40;;;;;;;6.78;4.53;;;17.20;79.00;;;;;;4888479;29;45410;-73
2023/04/08 21:50:08;;;;;;;6.97;4.75;;;17.10;79.00;;;;;;4888204;29;46280;-73
2023/04/08 21:52:36;;;;;;;6.95;4.80;;;17.20;78.80;;;;;;4888069;29;45526;-73
2023/04/08 21:55:03;;;;;;;7.47;5.28;;;17.20;78.70;;;;;;4888240;29;45385;-73
2023/04/08 21:57:30;;;;;;;6.82;5.00;;;17.20;78.50;;;;;;4894327;29;45498;-73
2023/04/08 21:59:57;;;;;;;6.88;5.03;;;17.10;79.10;;;;;;4903355;29;48982;-73
2023/04/08 22:02:25;;;;;;;7.43;4.80;;;17.10;78.50;;;;;;4888390;29;45711;-73
2023/04/08 22:04:52;;;;;;;6.90;5.07;;;17.10;78.50;;;;;;4891031;29;45341;-73
2023/04/08 22:07:19;;;;;;;8.07;5.63;;;17.10;78.70;;;;;;4891386;29;45479;-73
2023/04/08 22:09:46;;;;;;;6.75;4.78;;;17.20;78.50;;;;;;4891823;29;47466;-73
2023/04/08 22:12:13;;;;;;;7.82;5.20;;;17.10;78.50;;;;;;4891474;29;45337;-73
2023/04/08 22:14:39;;;;;;;6.63;5.13;;;17.10;78.50;;;;;;4890774;29;45333;-72
2023/04/08 22:17:06;;;;;;;7.50;5.32;;;17.10;78.40;;;;;;4892758;29;45208;-72
2023/04/08 22:19:34;;;;;;;7.07;5.30;;;17.10;78.90;;;;;;4890759;29;45386;-72
2023/04/08 22:22:01;;;;;;;8.40;5.05;;;17.10;78.70;;;;;;4906388;29;45399;-72
2023/04/08 22:24:28;;;;;;;7.10;5.15;;;17.20;78.80;;;;;;4904980;29;45294;-72
2023/04/08 22:26:55;;;;;;;7.53;5.45;;;17.20;79.20;;;;;;4909977;29;45427;-72
2023/04/08 22:29:21;;;;;;;8.55;5.50;;;17.20;79.00;;;;;;4910457;29;45254;-72
2023/04/08 22:31:48;;;;;;;7.25;5.15;;;17.20;78.90;;;;;;4892953;29;45226;-72
2023/04/08 22:34:15;;;;;;;7.65;5.53;;;17.20;79.00;;;;;;4891252;29;45342;-72
2023/04/08 22:36:43;;;;;;;7.50;5.80;;;17.20;79.20;;;;;;4898580;29;45417;-72
2023/04/08 22:39:10;;;;;;;7.15;5.50;;;17.20;79.20;;;;;;4898313;29;46072;-72
2023/04/08 22:41:37;;;;;;;8.98;5.45;;;17.20;79.10;;;;;;4905823;29;45385;-72
2023/04/08 22:44:04;;;;;;;8.02;5.43;;;17.20;79.10;;;;;;4901768;29;45218;-72
2023/04/08 22:46:31;;;;;;;8.10;5.50;;;17.20;78.60;;;;;;4895103;29;45258;-72
2023/04/08 22:48:58;;;;;;;8.65;5.75;;;17.20;78.70;;;;;;4900286;29;47371;-72
2023/04/08 22:51:25;;;;;;;8.30;5.70;;;17.20;78.70;;;;;;4896421;29;45274;-73
2023/04/08 22:53:53;;;;;;;6.70;5.43;;;17.20;78.60;;;;;;4890490;29;45345;-73
2023/04/08 22:56:20;;;;;;;7.10;5.55;;;17.20;78.20;;;;;;4893346;29;45530;-72
2023/04/08 22:58:47;;;;;;;7.80;5.35;;;17.20;78.20;;;;;;4890021;29;48174;-73
2023/04/08 23:01:15;;;;;;;8.32;6.07;;;17.20;78.50;;;;;;4890334;29;45321;-73
2023/04/08 23:03:42;;;;;;;7.82;5.40;;;17.20;78.20;;;;;;4906502;29;45344;-73
2023/04/08 23:06:09;;;;;;;10.25;6.10;;;17.20;78.30;;;;;;4901880;29;45596;-73
2023/04/08 23:08:37;;;;;;;7.30;5.45;;;17.20;78.20;;;;;;4891315;29;48024;-72
2023/04/08 23:11:05;;;;;;;8.95;6.20;;;17.20;78.10;;;;;;4897537;29;45648;-73
2023/04/08 23:13:32;;;;;;;8.38;5.43;;;17.20;78.20;;;;;;4888748;29;45268;-73
2023/04/08 23:16:00;;;;;;;8.93;6.18;;;17.20;78.50;;;;;;4890246;29;45623;-72
2023/04/08 23:18:27;;;;;;;8.05;5.45;;;17.20;78.40;;;;;;4904580;29;47919;-72
2023/04/08 23:20:55;;;;;;;9.57;6.10;;;17.20;78.80;;;;;;4892604;29;45932;-72
2023/04/08 23:23:23;;;;;;;8.20;5.57;;;17.20;78.90;;;;;;4891274;29;45226;-72
2023/04/08 23:25:49;;;;;;;8.25;5.63;;;17.20;79.00;;;;;;4892048;29;45248;-72
2023/04/08 23:28:18;;;;;;;8.40;6.22;;;17.20;78.90;;;;;;4905088;29;48237;-72
2023/04/08 23:30:45;;;;;;;8.07;5.70;;;17.20;79.00;;;;;;4906738;29;45356;-72
2023/04/08 23:33:11;;;;;;;7.75;5.93;;;17.30;79.20;;;;;;4909915;29;45191;-72
2023/04/08 23:35:39;;;;;;;8.60;5.60;;;17.30;79.00;;;;;;4904421;29;45129;-72
2023/04/08 23:38:06;;;;;;;8.30;5.93;;;17.30;78.90;;;;;;4903160;28;46413;-73
2023/04/08 23:40:33;;;;;;;8.90;5.85;;;17.30;78.80;;;;;;4918085;28;45280;-73
2023/04/08 23:42:59;;;;;;;6.88;5.20;;;17.20;78.40;;;;;;4910004;29;45348;-73
2023/04/08 23:45:28;;;;;;;9.40;5.90;;;17.20;78.00;;;;;;4910099;29;45178;-73
2023/04/08 23:47:54;;;;;;;8.07;5.57;;;17.20;78.00;;;;;;4927156;28;46381;-73
2023/04/08 23:50:21;;;;;;;8.55;5.38;;;17.20;78.10;;;;;;4928745;28;45165;-73
2023/04/08 23:52:48;;;;;;;9.27;5.70;;;17.20;78.20;;;;;;4920056;28;45386;-72
2023/04/08 23:55:15;;;;;;;8.90;5.57;;;17.20;77.80;;;;;;4909767;29;45353;-72
2023/04/08 23:57:42;;;;;;;8.23;5.78;;;17.20;78.10;;;;;;4909588;29;48150;-72
